Time,TemperatureF,DewpointF,PressureIn,WindDirection,WindDirectionDegrees,WindSpeedMPH,WindSpeedGustMPH,Humidity,HourlyPrecipIn,Conditions,Clouds,dailyrainin,SoftwareType,DateUTC
2013-01-24 00:03:00,9.4,-0.6,29.60,NNW,328,0.0,9.0,63,0.00,,---,0.00,VWS V12.07,2013-01-24 06:03:00,
2013-01-24 00:08:00,9.3,-0.7,29.61,NNW,332,5.0,10.0,63,0.00,,---,0.00,VWS V12.07,2013-01-24 06:08:00,
2013-01-24 00:13:00,9.3,-0.4,29.62,North,356,7.0,15.0,64,0.00,,---,0.00,VWS V12.07,2013-01-24 06:13:00,
2013-01-24 00:18:00,9.2,-0.8,29.62,NNW,345,10.0,15.0,63,0.00,,---,0.00,VWS V12.07,2013-01-24 06:18:00,
2013-01-24 00:23:00,8.9,-1.5,29.62,NW,324,6.0,15.0,62,0.00,,---,0.00,VWS V12.07,2013-01-24 06:23:00,
2013-01-24 00:28:00,9.0,-1.4,29.63,NNW,338,0.0,15.0,62,0.00,,---,0.00,VWS V12.07,2013-01-24 06:28:00,
2013-01-24 00:33:00,8.6,-2.1,29.63,NNW,347,6.0,9.0,61,0.00,,---,0.00,VWS V12.07,2013-01-24 06:33:00,
2013-01-24 00:38:00,8.3,-2.0,29.63,North,3,9.0,11.0,62,0.00,,---,0.00,VWS V12.07,2013-01-24 06:38:00,
2013-01-24 00:43:00,8.0,-2.7,29.63,North,1,7.0,11.0,61,0.00,,---,0.00,VWS V12.07,2013-01-24 06:43:00,
2013-01-24 00:48:00,7.9,-2.4,29.64,NNW,338,2.0,11.0,62,0.00,,---,0.00,VWS V12.07,2013-01-24 06:48:00,
2013-01-24 00:53:00,8.0,-2.3,29.64,North,351,5.0,11.0,62,0.00,,---,0.00,VWS V12.07,2013-01-24 06:53:00,
2013-01-24 00:58:00,7.6,-3.0,29.65,NE,35,2.0,11.0,61,0.00,,---,0.00,VWS V12.07,2013-01-24 06:58:00,
2013-01-24 01:03:00,7.5,-2.8,29.65,North,357,1.0,8.0,62,0.00,,---,0.00,VWS V12.07,2013-01-24 07:03:00,
2013-01-24 01:08:00,7.4,-2.9,29.65,NNE,32,3.0,8.0,62,0.00,,---,0.00,VWS V12.07,2013-01-24 07:08:00,
2013-01-24 01:13:00,7.3,-3.0,29.66,North,10,1.0,8.0,62,0.00,,---,0.00,VWS V12.07,2013-01-24 07:13:00,
2013-01-24 01:18:00,7.1,-3.2,29.66,NNE,30,2.0,8.0,62,0.00,,---,0.00,VWS V12.07,2013-01-24 07:18:00,
2013-01-24 01:23:00,7.0,-3.3,29.67,North,352,3.0,8.0,62,0.00,,---,0.00,VWS V12.07,2013-01-24 07:23:00,
2013-01-24 01:28:00,7.2,-2.7,29.67,NNW,348,0.0,8.0,63,0.00,,---,0.00,VWS V12.07,2013-01-24 07:28:00,
2013-01-24 01:33:00,7.2,-3.1,29.68,NNW,346,4.0,6.0,62,0.00,,---,0.00,VWS V12.07,2013-01-24 07:33:00,
2013-01-24 01:38:00,7.3,-2.6,29.68,North,349,8.0,8.0,63,0.00,,---,0.00,VWS V12.07,2013-01-24 07:38:00,
2013-01-24 01:43:00,7.0,-3.6,29.68,North,359,0.0,8.0,61,0.00,,---,0.00,VWS V12.07,2013-01-24 07:43:00,
2013-01-24 01:48:00,6.7,-3.9,29.68,North,355,2.0,8.0,61,0.00,,---,0.00,VWS V12.07,2013-01-24 07:48:00,
2013-01-24 01:53:00,6.7,-3.5,29.69,North,2,2.0,8.0,62,0.00,,---,0.00,VWS V12.07,2013-01-24 07:53:00,
2013-01-24 01:58:00,7.1,-2.5,29.69,NNE,15,1.0,8.0,64,0.00,,---,0.00,VWS V12.07,2013-01-24 07:58:00,
2013-01-24 02:03:00,7.5,-1.8,29.70,North,1,3.0,5.0,65,0.00,,---,0.00,VWS V12.07,2013-01-24 08:03:00,
2013-01-24 02:08:00,7.5,-2.5,29.70,NW,319,3.0,7.0,63,0.00,,---,0.00,VWS V12.07,2013-01-24 08:08:00,
2013-01-24 02:13:00,7.6,-2.0,29.70,NW,314,2.0,7.0,64,0.00,,---,0.00,VWS V12.07,2013-01-24 08:13:00,
2013-01-24 02:18:00,7.6,-2.3,29.71,NNW,348,0.0,7.0,63,0.00,,---,0.00,VWS V12.07,2013-01-24 08:18:00,
2013-01-24 02:23:00,7.6,-2.0,29.71,NNW,336,0.0,7.0,64,0.00,,---,0.00,VWS V12.07,2013-01-24 08:23:00,
2013-01-24 02:28:00,7.6,-2.0,29.72,NW,322,4.0,7.0,64,0.00,,---,0.00,VWS V12.07,2013-01-24 08:28:00,
2013-01-24 02:33:00,7.6,-2.0,29.72,NNW,345,0.0,4.0,64,0.00,,---,0.00,VWS V12.07,2013-01-24 08:33:00,
2013-01-24 02:38:00,7.6,-2.0,29.72,NNW,342,1.0,4.0,64,0.00,,---,0.00,VWS V12.07,2013-01-24 08:38:00,
2013-01-24 02:43:00,7.4,-2.2,29.72,NW,321,2.0,4.0,64,0.00,,---,0.00,VWS V12.07,2013-01-24 08:43:00,
2013-01-24 02:48:00,7.3,-2.3,29.72,NNW,337,2.0,5.0,64,0.00,,---,0.00,VWS V12.07,2013-01-24 08:48:00,
2013-01-24 02:53:00,7.2,-2.7,29.72,NNW,330,1.0,5.0,63,0.00,,---,0.00,VWS V12.07,2013-01-24 08:53:00,
2013-01-24 02:58:00,6.8,-3.5,29.73,NNW,337,2.0,6.0,62,0.00,,---,0.00,VWS V12.07,2013-01-24 08:58:00,
2013-01-24 03:03:00,6.8,-2.8,29.73,NNW,334,3.0,6.0,64,0.00,,---,0.00,VWS V12.07,2013-01-24 09:03:00,
2013-01-24 03:08:00,6.9,-2.7,29.73,NNW,329,3.0,6.0,64,0.00,,---,0.00,VWS V12.07,2013-01-24 09:08:00,
2013-01-24 03:13:00,6.7,-2.9,29.74,NW,322,1.0,6.0,64,0.00,,---,0.00,VWS V12.07,2013-01-24 09:13:00,
2013-01-24 03:18:00,6.9,-2.7,29.73,WNW,291,3.0,6.0,64,0.00,,---,0.00,VWS V12.07,2013-01-24 09:18:00,
2013-01-24 03:23:00,7.1,-2.2,29.74,NW,314,3.0,6.0,65,0.00,,---,0.00,VWS V12.07,2013-01-24 09:23:00,
2013-01-24 03:28:00,7.2,-2.1,29.74,NW,306,2.0,6.0,65,0.00,,---,0.00,VWS V12.07,2013-01-24 09:28:00,
2013-01-24 03:33:00,7.4,-1.9,29.74,North,6,2.0,3.0,65,0.00,,---,0.00,VWS V12.07,2013-01-24 09:33:00,
2013-01-24 03:38:00,7.2,-2.4,29.74,NW,319,1.0,6.0,64,0.00,,---,0.00,VWS V12.07,2013-01-24 09:38:00,
2013-01-24 03:43:00,7.0,-2.6,29.75,NW,324,1.0,6.0,64,0.00,,---,0.00,VWS V12.07,2013-01-24 09:43:00,
2013-01-24 03:48:00,7.0,-2.3,29.75,NW,306,3.0,6.0,65,0.00,,---,0.00,VWS V12.07,2013-01-24 09:48:00,
2013-01-24 03:53:00,7.1,-2.2,29.75,NW,324,0.0,6.0,65,0.00,,---,0.00,VWS V12.07,2013-01-24 09:53:00,
2013-01-24 03:58:00,7.2,-2.1,29.75,NNW,336,2.0,6.0,65,0.00,,---,0.00,VWS V12.07,2013-01-24 09:58:00,
2013-01-24 04:03:00,7.3,-2.0,29.75,NW,309,3.0,5.0,65,0.00,,---,0.00,VWS V12.07,2013-01-24 10:03:00,
2013-01-24 04:08:00,7.3,-2.3,29.76,NW,321,2.0,6.0,64,0.00,,---,0.00,VWS V12.07,2013-01-24 10:08:00,
2013-01-24 04:13:00,7.3,-2.0,29.76,NNW,332,1.0,6.0,65,0.00,,---,0.00,VWS V12.07,2013-01-24 10:13:00,
2013-01-24 04:18:00,7.3,-2.3,29.76,NW,309,2.0,7.0,64,0.00,,---,0.00,VWS V12.07,2013-01-24 10:18:00,
2013-01-24 04:23:00,7.1,-2.2,29.77,NW,315,3.0,7.0,65,0.00,,---,0.00,VWS V12.07,2013-01-24 10:23:00,
2013-01-24 04:28:00,7.1,-2.2,29.77,NW,311,2.0,7.0,65,0.00,,---,0.00,VWS V12.07,2013-01-24 10:28:00,
2013-01-24 04:33:00,7.2,-2.1,29.77,NNW,327,1.0,5.0,65,0.00,,---,0.00,VWS V12.07,2013-01-24 10:33:00,
2013-01-24 04:38:00,7.1,-2.2,29.77,NNW,344,3.0,6.0,65,0.00,,---,0.00,VWS V12.07,2013-01-24 10:38:00,
2013-01-24 04:43:00,6.7,-2.9,29.78,North,351,3.0,7.0,64,0.00,,---,0.00,VWS V12.07,2013-01-24 10:43:00,
2013-01-24 04:48:00,6.7,-2.5,29.78,WNW,302,7.0,7.0,65,0.00,,---,0.00,VWS V12.07,2013-01-24 10:48:00,
2013-01-24 04:53:00,6.6,-3.0,29.79,NNW,345,3.0,7.0,64,0.00,,---,0.00,VWS V12.07,2013-01-24 10:53:00,
2013-01-24 04:58:00,6.4,-3.5,29.78,NNW,332,3.0,7.0,63,0.00,,---,0.00,VWS V12.07,2013-01-24 10:58:00,
2013-01-24 05:03:00,6.1,-3.8,29.79,WNW,291,6.0,7.0,63,0.00,,---,0.00,VWS V12.07,2013-01-24 11:03:00,
2013-01-24 05:08:00,6.1,-3.8,29.79,NNW,340,3.0,7.0,63,0.00,,---,0.00,VWS V12.07,2013-01-24 11:08:00,
2013-01-24 05:13:00,5.8,-4.1,29.79,NNW,334,2.0,7.0,63,0.00,,---,0.00,VWS V12.07,2013-01-24 11:13:00,
2013-01-24 05:18:00,5.9,-3.3,29.79,NW,320,2.0,7.0,65,0.00,,---,0.00,VWS V12.07,2013-01-24 11:18:00,
2013-01-24 05:23:00,6.1,-3.1,29.80,NW,313,2.0,7.0,65,0.00,,---,0.00,VWS V12.07,2013-01-24 11:23:00,
2013-01-24 05:28:00,6.3,-2.9,29.80,NW,314,2.0,7.0,65,0.00,,---,0.00,VWS V12.07,2013-01-24 11:28:00,
2013-01-24 05:33:00,6.0,-3.5,29.81,NW,311,3.0,6.0,64,0.00,,---,0.00,VWS V12.07,2013-01-24 11:33:00,
2013-01-24 05:38:00,6.1,-3.1,29.81,NNW,346,2.0,6.0,65,0.00,,---,0.00,VWS V12.07,2013-01-24 11:38:00,
2013-01-24 05:43:00,5.8,-3.7,29.81,NW,323,1.0,6.0,64,0.00,,---,0.00,VWS V12.07,2013-01-24 11:43:00,
2013-01-24 05:48:00,5.5,-4.0,29.82,NW,314,3.0,6.0,64,0.00,,---,0.00,VWS V12.07,2013-01-24 11:48:00,
2013-01-24 05:53:00,5.7,-3.2,29.82,NW,324,2.0,6.0,66,0.00,,---,0.00,VWS V12.07,2013-01-24 11:53:00,
2013-01-24 05:58:00,5.7,-3.5,29.82,NNW,332,0.0,6.0,65,0.00,,---,0.00,VWS V12.07,2013-01-24 11:58:00,
2013-01-24 06:03:00,5.9,-3.3,29.82,NNW,341,1.0,6.0,65,0.00,,---,0.00,VWS V12.07,2013-01-24 12:03:00,
2013-01-24 06:08:00,5.6,-3.9,29.82,NW,310,1.0,6.0,64,0.00,,---,0.00,VWS V12.07,2013-01-24 12:08:00,
2013-01-24 06:13:00,5.5,-3.7,29.81,NW,315,2.0,6.0,65,0.00,,---,0.00,VWS V12.07,2013-01-24 12:13:00,
2013-01-24 06:18:00,5.6,-3.6,29.82,NNW,339,2.0,6.0,65,0.00,,---,0.00,VWS V12.07,2013-01-24 12:18:00,
2013-01-24 06:23:00,5.5,-3.7,29.82,North,354,1.0,6.0,65,0.00,,---,0.00,VWS V12.07,2013-01-24 12:23:00,
2013-01-24 06:28:00,5.3,-3.9,29.83,NW,322,1.0,6.0,65,0.00,,---,0.00,VWS V12.07,2013-01-24 12:28:00,
2013-01-24 06:33:00,5.3,-3.9,29.82,NNW,337,1.0,4.0,65,0.00,,---,0.00,VWS V12.07,2013-01-24 12:33:00,
2013-01-24 06:38:00,5.2,-4.0,29.81,WNW,302,3.0,5.0,65,0.00,,---,0.00,VWS V12.07,2013-01-24 12:38:00,
2013-01-24 06:43:00,5.4,-3.5,29.82,NNW,347,1.0,5.0,66,0.00,,---,0.00,VWS V12.07,2013-01-24 12:43:00,
2013-01-24 06:48:00,5.5,-3.7,29.82,NW,320,1.0,5.0,65,0.00,,---,0.00,VWS V12.07,2013-01-24 12:48:00,
2013-01-24 06:53:00,5.5,-3.7,29.82,NW,306,2.0,5.0,65,0.00,,---,0.00,VWS V12.07,2013-01-24 12:53:00,
2013-01-24 06:58:00,5.4,-3.8,29.82,NNW,341,2.0,5.0,65,0.00,,---,0.00,VWS V12.07,2013-01-24 12:58:00,
2013-01-24 07:03:00,5.5,-3.7,29.82,North,350,3.0,4.0,65,0.00,,---,0.00,VWS V12.07,2013-01-24 13:03:00,
2013-01-24 07:08:00,5.4,-3.8,29.82,NNW,342,1.0,4.0,65,0.00,,---,0.00,VWS V12.07,2013-01-24 13:08:00,
2013-01-24 07:13:00,5.3,-4.2,29.82,North,354,1.0,5.0,64,0.00,,---,0.00,VWS V12.07,2013-01-24 13:13:00,
2013-01-24 07:18:00,5.3,-3.9,29.82,NW,321,1.0,5.0,65,0.00,,---,0.00,VWS V12.07,2013-01-24 13:18:00,
2013-01-24 07:23:00,5.4,-3.5,29.82,NNW,338,2.0,5.0,66,0.00,,---,0.00,VWS V12.07,2013-01-24 13:23:00,
2013-01-24 07:28:00,5.4,-3.8,29.82,NNW,333,2.0,5.0,65,0.00,,---,0.00,VWS V12.07,2013-01-24 13:28:00,
2013-01-24 07:33:00,5.1,-4.4,29.83,NW,308,3.0,4.0,64,0.00,,---,0.00,VWS V12.07,2013-01-24 13:33:00,
2013-01-24 07:38:00,5.0,-4.2,29.83,North,349,1.0,4.0,65,0.00,,---,0.00,VWS V12.07,2013-01-24 13:38:00,
2013-01-24 07:43:00,5.1,-4.1,29.83,NNW,333,0.0,5.0,65,0.00,,---,0.00,VWS V12.07,2013-01-24 13:43:00,
2013-01-24 07:48:00,5.2,-4.0,29.83,NNW,339,4.0,6.0,65,0.00,,---,0.00,VWS V12.07,2013-01-24 13:48:00,
2013-01-24 07:53:00,5.2,-4.0,29.83,North,356,3.0,6.0,65,0.00,,---,0.00,VWS V12.07,2013-01-24 13:53:00,
2013-01-24 07:58:00,5.4,-3.8,29.83,NNW,337,3.0,6.0,65,0.00,,---,0.00,VWS V12.07,2013-01-24 13:58:00,
2013-01-24 08:03:00,5.5,-3.7,29.83,NW,325,3.0,3.0,65,0.00,,---,0.00,VWS V12.07,2013-01-24 14:03:00,
2013-01-24 08:08:00,5.8,-3.4,29.83,North,349,3.0,5.0,65,0.00,,---,0.00,VWS V12.07,2013-01-24 14:08:00,
2013-01-24 08:13:00,6.0,-3.2,29.84,NNW,344,3.0,5.0,65,0.00,,---,0.00,VWS V12.07,2013-01-24 14:13:00,
2013-01-24 08:18:00,6.0,-3.2,29.84,NNW,346,1.0,5.0,65,0.00,,---,0.00,VWS V12.07,2013-01-24 14:18:00,
2013-01-24 08:23:00,6.6,-2.7,29.84,North,350,5.0,5.0,65,0.00,,---,0.00,VWS V12.07,2013-01-24 14:23:00,
2013-01-24 08:28:00,6.8,-2.5,29.85,WNW,285,0.0,7.0,65,0.00,,---,0.00,VWS V12.07,2013-01-24 14:28:00,
2013-01-24 08:33:00,7.0,-2.3,29.85,NNW,327,2.0,5.0,65,0.00,,---,0.00,VWS V12.07,2013-01-24 14:33:00,
2013-01-24 08:38:00,7.4,-2.2,29.85,NNW,332,0.0,7.0,64,0.00,,---,0.00,VWS V12.07,2013-01-24 14:38:00,
2013-01-24 08:43:00,7.5,-2.1,29.86,NNW,332,0.0,7.0,64,0.00,,---,0.00,VWS V12.07,2013-01-24 14:43:00,
2013-01-24 08:48:00,8.1,-1.2,29.86,NNW,345,2.0,7.0,65,0.00,,---,0.00,VWS V12.07,2013-01-24 14:48:00,
2013-01-24 08:53:00,8.4,-1.6,29.86,NNW,327,2.0,7.0,63,0.00,,---,0.00,VWS V12.07,2013-01-24 14:53:00,
2013-01-24 08:58:00,8.6,-1.4,29.86,WNW,295,2.0,7.0,63,0.00,,---,0.00,VWS V12.07,2013-01-24 14:58:00,
2013-01-24 09:03:00,8.9,-1.1,29.87,WNW,299,1.0,4.0,63,0.00,,---,0.00,VWS V12.07,2013-01-24 15:03:00,
2013-01-24 09:08:00,9.2,-0.8,29.87,NNW,341,0.0,4.0,63,0.00,,---,0.00,VWS V12.07,2013-01-24 15:08:00,
2013-01-24 09:13:00,9.7,-0.3,29.87,NNW,342,1.0,4.0,63,0.00,,---,0.00,VWS V12.07,2013-01-24 15:13:00,
2013-01-24 09:18:00,9.9,-0.5,29.87,North,359,1.0,4.0,62,0.00,,---,0.00,VWS V12.07,2013-01-24 15:18:00,
2013-01-24 09:23:00,10.2,0.1,29.87,NNW,339,0.0,4.0,63,0.00,,---,0.00,VWS V12.07,2013-01-24 15:23:00,
2013-01-24 09:28:00,10.4,-0.4,29.87,North,8,2.0,4.0,61,0.00,,---,0.00,VWS V12.07,2013-01-24 15:28:00,
2013-01-24 09:33:00,10.8,0.7,29.87,NW,312,1.0,3.0,63,0.00,,---,0.00,VWS V12.07,2013-01-24 15:33:00,
2013-01-24 09:38:00,11.2,0.7,29.87,North,1,2.0,3.0,62,0.00,,---,0.00,VWS V12.07,2013-01-24 15:38:00,
2013-01-24 09:43:00,11.1,0.3,29.87,North,353,0.0,3.0,61,0.00,,---,0.00,VWS V12.07,2013-01-24 15:43:00,
2013-01-24 09:48:00,11.5,0.7,29.87,North,355,1.0,3.0,61,0.00,,---,0.00,VWS V12.07,2013-01-24 15:48:00,
2013-01-24 09:53:00,12.1,1.6,29.87,NW,312,1.0,6.0,62,0.00,,---,0.00,VWS V12.07,2013-01-24 15:53:00,
2013-01-24 09:58:00,12.7,2.2,29.88,NW,323,1.0,6.0,62,0.00,,---,0.00,VWS V12.07,2013-01-24 15:58:00,
2013-01-24 10:03:00,13.2,2.3,29.87,NNW,342,0.0,2.0,61,0.00,,---,0.00,VWS V12.07,2013-01-24 16:03:00,
2013-01-24 10:08:00,13.8,2.8,29.87,NNW,328,1.0,3.0,61,0.00,,---,0.00,VWS V12.07,2013-01-24 16:08:00,
2013-01-24 10:13:00,14.2,2.9,29.87,NNW,348,0.0,3.0,60,0.00,,---,0.00,VWS V12.07,2013-01-24 16:13:00,
2013-01-24 10:18:00,14.4,2.7,29.87,NNW,328,2.0,4.0,59,0.00,,---,0.00,VWS V12.07,2013-01-24 16:18:00,
2013-01-24 10:23:00,14.7,3.3,29.87,NW,322,0.0,5.0,60,0.00,,---,0.00,VWS V12.07,2013-01-24 16:23:00,
2013-01-24 10:28:00,15.1,3.4,29.87,NNW,337,0.0,5.0,59,0.00,,---,0.00,VWS V12.07,2013-01-24 16:28:00,
2013-01-24 10:33:00,15.0,3.3,29.87,NW,313,0.0,2.0,59,0.00,,---,0.00,VWS V12.07,2013-01-24 16:33:00,
2013-01-24 10:38:00,15.4,4.0,29.87,NW,308,1.0,4.0,60,0.00,,---,0.00,VWS V12.07,2013-01-24 16:38:00,
2013-01-24 10:43:00,15.7,3.9,29.87,NW,326,0.0,4.0,59,0.00,,---,0.00,VWS V12.07,2013-01-24 16:43:00,
2013-01-24 10:48:00,16.0,3.8,29.86,North,0,0.0,4.0,58,0.00,,---,0.00,VWS V12.07,2013-01-24 16:48:00,
2013-01-24 10:53:00,16.1,3.6,29.87,North,0,0.0,4.0,57,0.00,,---,0.00,VWS V12.07,2013-01-24 16:53:00,
2013-01-24 10:58:00,16.3,3.8,29.86,NNE,13,0.0,4.0,57,0.00,,---,0.00,VWS V12.07,2013-01-24 16:58:00,
2013-01-24 11:03:00,16.4,3.5,29.86,WNW,303,0.0,0.0,56,0.00,,---,0.00,VWS V12.07,2013-01-24 17:03:00,
2013-01-24 11:08:00,16.9,5.1,29.86,NNW,327,0.0,0.0,59,0.00,,---,0.00,VWS V12.07,2013-01-24 17:08:00,
2013-01-24 11:13:00,16.8,3.8,29.86,NE,36,0.0,3.0,56,0.00,,---,0.00,VWS V12.07,2013-01-24 17:13:00,
2013-01-24 11:18:00,16.6,4.0,29.85,NNE,16,0.0,3.0,57,0.00,,---,0.00,VWS V12.07,2013-01-24 17:18:00,
2013-01-24 11:23:00,16.5,3.5,29.85,NNE,29,0.0,3.0,56,0.00,,---,0.00,VWS V12.07,2013-01-24 17:23:00,
2013-01-24 11:28:00,17.2,5.3,29.85,NNW,340,0.0,3.0,59,0.00,,---,0.00,VWS V12.07,2013-01-24 17:28:00,
2013-01-24 11:33:00,17.4,4.4,29.84,NNW,340,0.0,3.0,56,0.00,,---,0.00,VWS V12.07,2013-01-24 17:33:00,
2013-01-24 11:38:00,18.0,5.7,29.84,NW,320,0.0,3.0,58,0.00,,---,0.00,VWS V12.07,2013-01-24 17:38:00,
2013-01-24 11:43:00,18.5,5.4,29.84,NNE,15,0.0,3.0,56,0.00,,---,0.00,VWS V12.07,2013-01-24 17:43:00,
2013-01-24 11:48:00,18.9,6.2,29.84,NW,305,1.0,3.0,57,0.00,,---,0.00,VWS V12.07,2013-01-24 17:48:00,
2013-01-24 11:53:00,19.4,7.1,29.84,WNW,298,2.0,3.0,58,0.00,,---,0.00,VWS V12.07,2013-01-24 17:53:00,
2013-01-24 11:58:00,19.9,7.5,29.83,NNW,337,0.0,3.0,58,0.00,,---,0.00,VWS V12.07,2013-01-24 17:58:00,
2013-01-24 12:03:00,19.9,6.3,29.83,North,10,0.0,2.0,55,0.00,,---,0.00,VWS V12.07,2013-01-24 18:03:00,
2013-01-24 12:08:00,19.9,5.9,29.83,North,5,0.0,2.0,54,0.00,,---,0.00,VWS V12.07,2013-01-24 18:08:00,
2013-01-24 12:13:00,20.1,6.9,29.83,NNW,342,0.0,2.0,56,0.00,,---,0.00,VWS V12.07,2013-01-24 18:13:00,
2013-01-24 12:18:00,20.6,7.4,29.83,WNW,298,0.0,3.0,56,0.00,,---,0.00,VWS V12.07,2013-01-24 18:18:00,
2013-01-24 12:23:00,21.0,8.2,29.83,WSW,255,2.0,3.0,57,0.00,,---,0.00,VWS V12.07,2013-01-24 18:23:00,
2013-01-24 12:28:00,21.4,8.6,29.82,NW,316,2.0,3.0,57,0.00,,---,0.00,VWS V12.07,2013-01-24 18:28:00,
2013-01-24 12:33:00,21.7,8.4,29.82,NW,324,0.0,3.0,56,0.00,,---,0.00,VWS V12.07,2013-01-24 18:33:00,
2013-01-24 12:38:00,21.6,7.9,29.82,WNW,295,0.0,3.0,55,0.00,,---,0.00,VWS V12.07,2013-01-24 18:38:00,
2013-01-24 12:43:00,21.9,8.6,29.82,WNW,295,0.0,3.0,56,0.00,,---,0.00,VWS V12.07,2013-01-24 18:43:00,
2013-01-24 12:48:00,22.4,8.3,29.82,NNW,329,0.0,3.0,54,0.00,,---,0.00,VWS V12.07,2013-01-24 18:48:00,
2013-01-24 12:53:00,22.3,7.8,29.82,North,354,0.0,3.0,53,0.00,,---,0.00,VWS V12.07,2013-01-24 18:53:00,
2013-01-24 12:58:00,22.3,7.8,29.82,North,356,0.0,3.0,53,0.00,,---,0.00,VWS V12.07,2013-01-24 18:58:00,
2013-01-24 13:03:00,22.7,8.1,29.82,North,357,0.0,0.0,53,0.00,,---,0.00,VWS V12.07,2013-01-24 19:03:00,
2013-01-24 13:08:00,21.9,7.4,29.81,North,6,0.0,0.0,53,0.00,,---,0.00,VWS V12.07,2013-01-24 19:08:00,
2013-01-24 13:13:00,22.2,7.7,29.81,North,6,0.0,0.0,53,0.00,,---,0.00,VWS V12.07,2013-01-24 19:13:00,
2013-01-24 13:18:00,21.9,7.0,29.81,North,6,0.0,0.0,52,0.00,,---,0.00,VWS V12.07,2013-01-24 19:18:00,
2013-01-24 13:23:00,21.9,7.8,29.81,NNE,27,0.0,0.0,54,0.00,,---,0.00,VWS V12.07,2013-01-24 19:23:00,
2013-01-24 13:28:00,22.2,8.1,29.80,NNE,29,0.0,0.0,54,0.00,,---,0.00,VWS V12.07,2013-01-24 19:28:00,
2013-01-24 13:33:00,22.2,7.7,29.81,NNE,32,0.0,0.0,53,0.00,,---,0.00,VWS V12.07,2013-01-24 19:33:00,
2013-01-24 13:38:00,22.3,8.6,29.80,SSE,162,0.0,0.0,55,0.00,,---,0.00,VWS V12.07,2013-01-24 19:38:00,
2013-01-24 13:43:00,22.3,9.4,29.80,SSW,202,0.0,0.0,57,0.00,,---,0.00,VWS V12.07,2013-01-24 19:43:00,
2013-01-24 13:48:00,22.1,10.4,29.80,SSW,199,0.0,0.0,60,0.00,,---,0.00,VWS V12.07,2013-01-24 19:48:00,
2013-01-24 13:53:00,22.3,11.3,29.80,SSW,200,0.0,0.0,62,0.00,,---,0.00,VWS V12.07,2013-01-24 19:53:00,
2013-01-24 13:58:00,22.5,11.5,29.80,SSW,198,0.0,0.0,62,0.00,,---,0.00,VWS V12.07,2013-01-24 19:58:00,
2013-01-24 14:03:00,22.7,11.6,29.80,SSW,206,0.0,0.0,62,0.00,,---,0.00,VWS V12.07,2013-01-24 20:03:00,
2013-01-24 14:08:00,22.8,11.4,29.80,SW,218,0.0,0.0,61,0.00,,---,0.00,VWS V12.07,2013-01-24 20:08:00,
2013-01-24 14:13:00,23.1,12.0,29.80,WSW,249,0.0,0.0,62,0.00,,---,0.00,VWS V12.07,2013-01-24 20:13:00,
2013-01-24 14:18:00,22.8,11.4,29.80,SW,229,0.0,0.0,61,0.00,,---,0.00,VWS V12.07,2013-01-24 20:18:00,
2013-01-24 14:23:00,22.3,10.9,29.80,SSW,205,0.0,0.0,61,0.00,,---,0.00,VWS V12.07,2013-01-24 20:23:00,
2013-01-24 14:28:00,22.1,10.7,29.80,WSW,237,0.0,0.0,61,0.00,,---,0.00,VWS V12.07,2013-01-24 20:28:00,
2013-01-24 14:33:00,22.2,11.2,29.80,SSW,206,0.0,0.0,62,0.00,,---,0.00,VWS V12.07,2013-01-24 20:33:00,
2013-01-24 14:38:00,22.2,10.8,29.80,SSW,206,0.0,0.0,61,0.00,,---,0.00,VWS V12.07,2013-01-24 20:38:00,
2013-01-24 14:43:00,22.3,10.5,29.80,SSW,207,0.0,0.0,60,0.00,,---,0.00,VWS V12.07,2013-01-24 20:43:00,
2013-01-24 14:48:00,22.4,11.0,29.80,SSW,207,0.0,0.0,61,0.00,,---,0.00,VWS V12.07,2013-01-24 20:48:00,
2013-01-24 14:53:00,22.4,10.6,29.80,SSW,207,0.0,0.0,60,0.00,,---,0.00,VWS V12.07,2013-01-24 20:53:00,
2013-01-24 14:58:00,22.5,10.7,29.79,SW,220,0.0,0.0,60,0.00,,---,0.00,VWS V12.07,2013-01-24 20:58:00,
2013-01-24 15:03:00,22.3,10.5,29.80,SW,219,0.0,0.0,60,0.00,,---,0.00,VWS V12.07,2013-01-24 21:03:00,
2013-01-24 15:08:00,22.0,10.6,29.79,SSW,207,0.0,0.0,61,0.00,,---,0.00,VWS V12.07,2013-01-24 21:08:00,
2013-01-24 15:13:00,21.9,10.5,29.80,South,182,0.0,0.0,61,0.00,,---,0.00,VWS V12.07,2013-01-24 21:13:00,
2013-01-24 15:18:00,21.5,10.1,29.80,South,180,0.0,0.0,61,0.00,,---,0.00,VWS V12.07,2013-01-24 21:18:00,
2013-01-24 15:23:00,21.5,10.5,29.79,South,179,0.0,0.0,62,0.00,,---,0.00,VWS V12.07,2013-01-24 21:23:00,
2013-01-24 15:28:00,21.4,10.4,29.79,South,191,0.0,0.0,62,0.00,,---,0.00,VWS V12.07,2013-01-24 21:28:00,
2013-01-24 15:33:00,21.3,10.3,29.79,South,191,0.0,0.0,62,0.00,,---,0.00,VWS V12.07,2013-01-24 21:33:00,
2013-01-24 15:38:00,21.1,10.5,29.79,SSW,204,0.0,0.0,63,0.00,,---,0.00,VWS V12.07,2013-01-24 21:38:00,
2013-01-24 15:43:00,21.0,10.4,29.79,SSW,203,0.0,0.0,63,0.00,,---,0.00,VWS V12.07,2013-01-24 21:43:00,
2013-01-24 15:49:00,20.7,10.1,29.79,SSW,204,0.0,0.0,63,0.00,,---,0.00,VWS V12.07,2013-01-24 21:49:00,
2013-01-24 15:54:00,20.5,9.9,29.79,SSW,199,0.0,0.0,63,0.00,,---,0.00,VWS V12.07,2013-01-24 21:54:00,
2013-01-24 15:59:00,20.4,10.2,29.78,SSW,203,0.0,0.0,64,0.00,,---,0.00,VWS V12.07,2013-01-24 21:59:00,
2013-01-24 16:04:00,20.3,10.1,29.79,SSW,203,0.0,0.0,64,0.00,,---,0.00,VWS V12.07,2013-01-24 22:04:00,
2013-01-24 16:09:00,20.1,10.2,29.78,SSW,200,0.0,0.0,65,0.00,,---,0.00,VWS V12.07,2013-01-24 22:09:00,
2013-01-24 16:14:00,20.0,10.1,29.77,SSW,204,0.0,0.0,65,0.00,,---,0.00,VWS V12.07,2013-01-24 22:14:00,
2013-01-24 16:19:00,19.9,10.1,29.77,South,185,0.0,0.0,65,0.00,,---,0.00,VWS V12.07,2013-01-24 22:19:00,
2013-01-24 16:24:00,19.9,10.1,29.77,SSW,197,0.0,0.0,65,0.00,,---,0.00,VWS V12.07,2013-01-24 22:24:00,
2013-01-24 16:29:00,19.7,9.5,29.77,SSW,197,0.0,0.0,64,0.00,,---,0.00,VWS V12.07,2013-01-24 22:29:00,
2013-01-24 16:34:00,19.6,9.8,29.77,SSW,197,0.0,0.0,65,0.00,,---,0.00,VWS V12.07,2013-01-24 22:34:00,
2013-01-24 16:39:00,19.7,9.9,29.77,SSW,197,0.0,0.0,65,0.00,,---,0.00,VWS V12.07,2013-01-24 22:39:00,
2013-01-24 16:44:00,19.9,10.1,29.76,SSW,198,0.0,0.0,65,0.00,,---,0.00,VWS V12.07,2013-01-24 22:44:00,
2013-01-24 16:49:00,20.0,10.1,29.76,SSW,198,0.0,0.0,65,0.00,,---,0.00,VWS V12.07,2013-01-24 22:49:00,
2013-01-24 16:54:00,19.8,9.9,29.76,SSW,198,0.0,0.0,65,0.00,,---,0.00,VWS V12.07,2013-01-24 22:54:00,
2013-01-24 16:59:00,19.8,9.9,29.76,SSW,198,0.0,0.0,65,0.00,,---,0.00,VWS V12.07,2013-01-24 22:59:00,
2013-01-24 17:04:00,19.9,10.1,29.76,SSW,198,0.0,0.0,65,0.00,,---,0.00,VWS V12.07,2013-01-24 23:04:00,
2013-01-24 17:09:00,19.9,10.1,29.76,SSW,198,0.0,0.0,65,0.00,,---,0.00,VWS V12.07,2013-01-24 23:09:00,
2013-01-24 17:14:00,20.0,10.1,29.76,SSW,198,0.0,0.0,65,0.00,,---,0.00,VWS V12.07,2013-01-24 23:14:00,
2013-01-24 17:19:00,20.1,10.2,29.76,SSW,198,0.0,0.0,65,0.00,,---,0.00,VWS V12.07,2013-01-24 23:19:00,
2013-01-24 17:24:00,20.3,10.4,29.76,SSW,198,0.0,0.0,65,0.00,,---,0.00,VWS V12.07,2013-01-24 23:24:00,
2013-01-24 17:29:00,20.3,10.1,29.76,SSW,198,0.0,0.0,64,0.00,,---,0.00,VWS V12.07,2013-01-24 23:29:00,
2013-01-24 17:34:00,20.3,10.1,29.75,SSW,198,0.0,0.0,64,0.00,,---,0.00,VWS V12.07,2013-01-24 23:34:00,
2013-01-24 17:39:00,20.2,10.0,29.75,SSW,198,0.0,0.0,64,0.00,,---,0.00,VWS V12.07,2013-01-24 23:39:00,
2013-01-24 17:44:00,20.1,10.2,29.75,SSW,198,0.0,0.0,65,0.00,,---,0.00,VWS V12.07,2013-01-24 23:44:00,
2013-01-24 17:49:00,20.2,10.3,29.75,SSW,198,0.0,0.0,65,0.00,,---,0.00,VWS V12.07,2013-01-24 23:49:00,
2013-01-24 17:54:00,20.2,9.6,29.75,SSW,198,0.0,0.0,63,0.00,,---,0.00,VWS V12.07,2013-01-24 23:54:00,
2013-01-24 17:59:00,20.1,9.9,29.75,SSW,198,0.0,0.0,64,0.00,,---,0.00,VWS V12.07,2013-01-24 23:59:00,
2013-01-24 18:04:00,20.1,9.9,29.75,SSW,198,0.0,0.0,64,0.00,,---,0.00,VWS V12.07,2013-01-25 00:04:00,
2013-01-24 18:09:00,20.1,9.9,29.75,SSW,198,0.0,0.0,64,0.00,,---,0.00,VWS V12.07,2013-01-25 00:09:00,
2013-01-24 18:14:00,19.9,9.7,29.74,SSW,198,0.0,0.0,64,0.00,,---,0.00,VWS V12.07,2013-01-25 00:14:00,
2013-01-24 18:19:00,19.8,9.9,29.74,SSW,198,0.0,0.0,65,0.00,,---,0.00,VWS V12.07,2013-01-25 00:19:00,
2013-01-24 18:24:00,19.8,9.9,29.74,SSW,198,0.0,0.0,65,0.00,,---,0.00,VWS V12.07,2013-01-25 00:24:00,
2013-01-24 18:29:00,19.7,9.5,29.74,SSW,198,0.0,0.0,64,0.00,,---,0.00,VWS V12.07,2013-01-25 00:29:00,
2013-01-24 18:34:00,19.7,9.9,29.73,SSW,198,0.0,0.0,65,0.00,,---,0.00,VWS V12.07,2013-01-25 00:34:00,
2013-01-24 18:39:00,19.8,9.9,29.73,SSW,198,0.0,0.0,65,0.00,,---,0.00,VWS V12.07,2013-01-25 00:39:00,
2013-01-24 18:44:00,19.7,9.9,29.73,SSW,195,0.0,0.0,65,0.00,,---,0.00,VWS V12.07,2013-01-25 00:44:00,
2013-01-24 18:49:00,19.6,9.8,29.73,SSE,156,0.0,0.0,65,0.00,,---,0.00,VWS V12.07,2013-01-25 00:49:00,
2013-01-24 18:54:00,19.4,9.6,29.73,SSE,156,0.0,0.0,65,0.00,,---,0.00,VWS V12.07,2013-01-25 00:54:00,
2013-01-24 18:59:00,19.4,9.6,29.72,SSE,156,0.0,0.0,65,0.00,,---,0.00,VWS V12.07,2013-01-25 00:59:00,
2013-01-24 19:04:00,19.5,9.7,29.72,SSE,156,0.0,0.0,65,0.00,,---,0.00,VWS V12.07,2013-01-25 01:04:00,
2013-01-24 19:09:00,19.5,9.7,29.72,SSE,156,0.0,0.0,65,0.00,,---,0.00,VWS V12.07,2013-01-25 01:09:00,
2013-01-24 19:14:00,19.7,9.9,29.72,SSE,156,0.0,0.0,65,0.00,,---,0.00,VWS V12.07,2013-01-25 01:14:00,
2013-01-24 19:19:00,19.7,9.9,29.71,SSE,156,0.0,0.0,65,0.00,,---,0.00,VWS V12.07,2013-01-25 01:19:00,
2013-01-24 19:24:00,19.5,9.7,29.70,SSE,156,0.0,0.0,65,0.00,,---,0.00,VWS V12.07,2013-01-25 01:24:00,
2013-01-24 19:29:00,19.7,9.9,29.71,SE,146,0.0,0.0,65,0.00,,---,0.00,VWS V12.07,2013-01-25 01:29:00,
2013-01-24 19:34:00,19.9,9.7,29.70,SSE,155,0.0,0.0,64,0.00,,---,0.00,VWS V12.07,2013-01-25 01:34:00,
2013-01-24 19:39:00,19.8,8.5,29.69,SSE,154,0.0,0.0,61,0.00,,---,0.00,VWS V12.07,2013-01-25 01:39:00,
2013-01-24 19:44:00,19.7,6.6,29.69,SE,137,3.0,5.0,56,0.00,,---,0.00,VWS V12.07,2013-01-25 01:44:00,
2013-01-24 19:49:00,19.7,6.2,29.69,SSE,158,0.0,5.0,55,0.00,,---,0.00,VWS V12.07,2013-01-25 01:49:00,
2013-01-24 19:54:00,19.6,6.1,29.69,SSE,151,0.0,5.0,55,0.00,,---,0.00,VWS V12.07,2013-01-25 01:54:00,
2013-01-24 19:59:00,19.6,6.1,29.69,SE,125,0.0,5.0,55,0.00,,---,0.00,VWS V12.07,2013-01-25 01:59:00,
2013-01-24 20:04:00,19.7,6.2,29.68,SE,137,0.0,0.0,55,0.00,,---,0.00,VWS V12.07,2013-01-25 02:04:00,
2013-01-24 20:09:00,19.7,6.2,29.68,SE,143,0.0,3.0,55,0.00,,---,0.00,VWS V12.07,2013-01-25 02:09:00,
2013-01-24 20:14:00,19.6,6.1,29.68,SE,145,0.0,4.0,55,0.00,,---,0.00,VWS V12.07,2013-01-25 02:14:00,
2013-01-24 20:19:00,19.5,6.0,29.68,SE,134,0.0,6.0,55,0.00,,---,0.00,VWS V12.07,2013-01-25 02:19:00,
2013-01-24 20:24:00,19.6,6.5,29.68,SE,137,0.0,6.0,56,0.00,,---,0.00,VWS V12.07,2013-01-25 02:24:00,
2013-01-24 20:29:00,19.7,6.6,29.68,SE,140,0.0,6.0,56,0.00,,---,0.00,VWS V12.07,2013-01-25 02:29:00,
2013-01-24 20:34:00,19.7,6.2,29.68,SSE,147,1.0,4.0,55,0.00,,---,0.00,VWS V12.07,2013-01-25 02:34:00,
2013-01-24 20:39:00,19.9,6.3,29.69,South,185,0.0,4.0,55,0.00,,---,0.00,VWS V12.07,2013-01-25 02:39:00,
2013-01-24 20:44:00,20.0,6.0,29.68,SSE,160,0.0,4.0,54,0.00,,---,0.00,VWS V12.07,2013-01-25 02:44:00,
2013-01-24 20:49:00,20.1,6.1,29.69,South,186,0.0,4.0,54,0.00,,---,0.00,VWS V12.07,2013-01-25 02:49:00,
2013-01-24 20:54:00,20.2,6.2,29.69,SSE,159,2.0,4.0,54,0.00,,---,0.00,VWS V12.07,2013-01-25 02:54:00,
2013-01-24 20:59:00,20.2,5.8,29.68,SW,217,2.0,5.0,53,0.00,,---,0.00,VWS V12.07,2013-01-25 02:59:00,
2013-01-24 21:04:00,20.1,5.7,29.68,SE,145,0.0,4.0,53,0.00,,---,0.00,VWS V12.07,2013-01-25 03:04:00,
2013-01-24 21:08:00,20.1,5.7,29.68,SSE,166,0.0,4.0,53,0.00,,---,0.00,VWS V12.07,2013-01-25 03:08:00,
2013-01-24 21:13:00,20.2,6.2,29.68,SSE,167,0.0,4.0,54,0.00,,---,0.00,VWS V12.07,2013-01-25 03:13:00,
2013-01-24 21:18:00,20.3,6.3,29.69,South,186,0.0,4.0,54,0.00,,---,0.00,VWS V12.07,2013-01-25 03:18:00,
2013-01-24 21:23:00,20.2,6.2,29.69,SSW,194,0.0,4.0,54,0.00,,---,0.00,VWS V12.07,2013-01-25 03:23:00,
2013-01-24 21:28:00,20.3,6.3,29.69,South,173,0.0,4.0,54,0.00,,---,0.00,VWS V12.07,2013-01-25 03:28:00,
2013-01-24 21:33:00,20.3,6.3,29.69,SW,216,1.0,4.0,54,0.00,,---,0.00,VWS V12.07,2013-01-25 03:33:00,
2013-01-24 21:38:00,20.1,6.1,29.69,SE,145,1.0,4.0,54,0.00,,---,0.00,VWS V12.07,2013-01-25 03:38:00,
2013-01-24 21:43:00,20.2,6.2,29.68,South,191,1.0,4.0,54,0.00,,---,0.00,VWS V12.07,2013-01-25 03:43:00,
2013-01-24 21:48:00,20.2,6.2,29.67,SSE,151,0.0,4.0,54,0.00,,---,0.00,VWS V12.07,2013-01-25 03:48:00,
2013-01-24 21:53:00,20.1,5.7,29.66,SE,145,1.0,4.0,53,0.00,,---,0.00,VWS V12.07,2013-01-25 03:53:00,
2013-01-24 21:58:00,20.1,5.7,29.66,South,172,2.0,4.0,53,0.00,,---,0.00,VWS V12.07,2013-01-25 03:58:00,
2013-01-24 22:03:00,20.0,5.6,29.65,SSW,195,1.0,3.0,53,0.00,,---,0.00,VWS V12.07,2013-01-25 04:03:00,
2013-01-24 22:08:00,19.9,5.5,29.64,South,184,1.0,5.0,53,0.00,,---,0.00,VWS V12.07,2013-01-25 04:08:00,
2013-01-24 22:13:00,19.8,5.4,29.64,South,176,0.0,5.0,53,0.00,,---,0.00,VWS V12.07,2013-01-25 04:13:00,
2013-01-24 22:18:00,19.8,5.4,29.64,SSE,156,0.0,5.0,53,0.00,,---,0.00,VWS V12.07,2013-01-25 04:18:00,
2013-01-24 22:23:00,19.9,5.5,29.64,South,176,0.0,5.0,53,0.00,,---,0.00,VWS V12.07,2013-01-25 04:23:00,
2013-01-24 22:28:00,19.8,5.4,29.64,SSE,164,5.0,7.0,53,0.00,,---,0.00,VWS V12.07,2013-01-25 04:28:00,
2013-01-24 22:33:00,19.7,5.3,29.63,SSW,213,2.0,7.0,53,0.00,,---,0.00,VWS V12.07,2013-01-25 04:33:00,
2013-01-24 22:38:00,19.7,5.3,29.64,South,187,0.0,8.0,53,0.00,,---,0.00,VWS V12.07,2013-01-25 04:38:00,
2013-01-24 22:43:00,19.8,5.8,29.64,SE,141,2.0,9.0,54,0.00,,---,0.00,VWS V12.07,2013-01-25 04:43:00,
2013-01-24 22:48:00,19.8,5.4,29.64,South,173,3.0,9.0,53,0.00,,---,0.00,VWS V12.07,2013-01-25 04:48:00,
2013-01-24 22:53:00,19.8,5.0,29.63,SSE,158,2.0,10.0,52,0.00,,---,0.00,VWS V12.07,2013-01-25 04:53:00,
2013-01-24 22:58:00,19.8,5.4,29.62,SSE,160,2.0,10.0,53,0.00,,---,0.00,VWS V12.07,2013-01-25 04:58:00,
2013-01-24 23:00:00,19.9,5.5,29.63,SE,135,3.0,3.0,53,0.00,,---,0.00,VWS V12.07,2013-01-25 05:00:00,
2013-01-24 23:01:00,19.9,5.5,29.63,SSW,198,7.0,7.0,53,0.00,,---,0.00,VWS V12.07,2013-01-25 05:01:00,
2013-01-24 23:06:00,19.9,5.5,29.63,South,169,5.0,7.0,53,0.00,,---,0.00,VWS V12.07,2013-01-25 05:06:00,
2013-01-24 23:11:00,19.8,5.4,29.63,SSE,168,0.0,7.0,53,0.00,,---,0.00,VWS V12.07,2013-01-25 05:11:00,
2013-01-24 23:16:00,19.9,5.5,29.63,SSE,160,0.0,7.0,53,0.00,,---,0.00,VWS V12.07,2013-01-25 05:16:00,
2013-01-24 23:21:00,20.0,5.2,29.63,SE,140,0.0,7.0,52,0.00,,---,0.00,VWS V12.07,2013-01-25 05:21:00,
2013-01-24 23:26:00,19.9,5.1,29.63,South,178,0.0,7.0,52,0.00,,---,0.00,VWS V12.07,2013-01-25 05:26:00,
2013-01-24 23:31:00,20.0,5.6,29.63,SSE,147,0.0,0.0,53,0.00,,---,0.00,VWS V12.07,2013-01-25 05:31:00,
2013-01-24 23:36:00,20.1,6.1,29.63,SW,224,0.0,5.0,54,0.00,,---,0.00,VWS V12.07,2013-01-25 05:36:00,
2013-01-24 23:41:00,20.1,5.7,29.62,SSE,168,0.0,5.0,53,0.00,,---,0.00,VWS V12.07,2013-01-25 05:41:00,
2013-01-24 23:46:00,20.2,6.2,29.62,South,183,1.0,5.0,54,0.00,,---,0.00,VWS V12.07,2013-01-25 05:46:00,
2013-01-24 23:51:00,20.2,5.8,29.63,South,183,0.0,6.0,53,0.00,,---,0.00,VWS V12.07,2013-01-25 05:51:00,
2013-01-24 23:56:00,20.1,5.3,29.63,SSW,208,2.0,7.0,52,0.00,,---,0.00,VWS V12.07,2013-01-25 05:56:00,